Time;durP1;ratioP1;P1;durP2;ratioP2;P2;SDS_P1;SDS_P2;PMS_P1;PMS_P2;Temp;Humidity;BMP_temperature;BMP_pressure;BME280_temperature;BME280_humidity;BME280_pressure;Samples;Min_cycle;Max_cycle;Signal;HPM_P1;HPM_P2
2022/10/24 00:01:20;;;;;;;4.47;1.38;;;;;;;22.95;44.82;102112.16;4197984;28;20114;-68
2022/10/24 00:03:22;;;;;;;1.70;1.30;;;;;;;22.97;44.64;102115.56;4190131;28;20446;-68
2022/10/24 00:05:24;;;;;;;2.47;1.60;;;;;;;22.98;44.68;102117.22;4180961;28;20815;-69
2022/10/24 00:07:29;;;;;;;2.13;1.40;;;;;;;23.00;44.62;102117.78;4183137;28;20089;-68
2022/10/24 00:09:34;;;;;;;2.85;1.52;;;;;;;22.80;44.81;102077.41;4198093;28;20102;-68
2022/10/24 00:11:35;;;;;;;1.52;1.38;;;;;;;23.00;44.92;102103.84;4184056;28;20036;-70
2022/10/24 00:13:36;;;;;;;2.38;1.35;;;;;;;22.99;44.74;102102.16;4197867;28;20040;-69
2022/10/24 00:15:39;;;;;;;2.97;1.95;;;;;;;22.95;44.85;102095.41;4196874;28;20430;-69
2022/10/24 00:17:40;;;;;;;2.35;1.60;;;;;;;23.02;44.84;102098.84;4198057;28;20060;-69
2022/10/24 00:19:41;;;;;;;2.55;1.17;;;;;;;23.02;44.63;102090.47;4196757;28;20041;-70
2022/10/24 00:21:42;;;;;;;2.15;1.48;;;;;;;22.96;44.85;102074.78;4197912;28;20040;-69
2022/10/24 00:23:44;;;;;;;3.83;1.52;;;;;;;23.01;44.83;102091.59;4197852;28;20037;-69
2022/10/24 00:25:46;;;;;;;2.03;1.55;;;;;;;23.00;44.92;102092.66;4196334;28;20040;-70
2022/10/24 00:27:48;;;;;;;2.30;1.48;;;;;;;23.00;44.77;102078.72;4188952;28;20511;-69
2022/10/24 00:29:49;;;;;;;2.78;1.50;;;;;;;22.78;44.48;102029.41;4182750;28;20045;-70
2022/10/24 00:31:50;;;;;;;2.25;1.67;;;;;;;23.00;44.68;102076.78;4192661;28;20036;-69
2022/10/24 00:33:52;;;;;;;2.80;1.55;;;;;;;23.01;44.92;102077.63;4181327;28;20103;-70
2022/10/24 00:35:56;;;;;;;2.40;1.50;;;;;;;22.97;44.81;102070.88;4191065;28;20044;-70
2022/10/24 00:38:00;;;;;;;2.60;1.55;;;;;;;23.02;44.76;102074.56;4197817;28;20098;-70
2022/10/24 00:40:04;;;;;;;2.83;1.50;;;;;;;23.04;44.79;102065.91;4195782;28;20028;-69
2022/10/24 00:42:06;;;;;;;3.55;1.35;;;;;;;23.05;44.98;102068.44;4195887;28;20045;-70
2022/10/24 00:44:16;;;;;;;1.92;1.50;;;;;;;23.04;44.87;102075.13;4194484;28;20045;-71
2022/10/24 00:46:22;;;;;;;2.28;1.40;;;;;;;23.06;44.90;102070.13;4180716;28;20041;-70
2022/10/24 00:48:44;;;;;;;2.65;1.40;;;;;;;23.04;44.98;102068.69;4193807;28;20036;-70
2022/10/24 00:50:46;;;;;;;1.83;1.27;;;;;;;23.07;44.61;102070.97;4180936;28;20102;-70
2022/10/24 00:52:47;;;;;;;2.05;1.52;;;;;;;23.08;44.74;102078.22;4187400;28;20094;-70
2022/10/24 00:54:52;;;;;;;2.17;1.80;;;;;;;23.07;44.74;102087.72;4194977;28;20083;-71
2022/10/24 00:57:05;;;;;;;1.98;1.60;;;;;;;23.07;44.46;102096.09;4191823;28;20429;-70
2022/10/24 00:59:09;;;;;;;1.90;1.70;;;;;;;23.10;44.79;102087.19;4185126;28;20032;-71
2022/10/24 01:01:11;;;;;;;1.95;1.45;;;;;;;23.09;44.71;102085.47;4196322;28;20086;-71
2022/10/24 01:03:15;;;;;;;2.25;1.60;;;;;;;23.10;44.99;102077.97;4192916;28;20044;-70
2022/10/24 01:05:20;;;;;;;2.00;1.35;;;;;;;23.09;44.68;102074.31;4190771;28;20033;-71
2022/10/24 01:07:39;;;;;;;1.60;1.15;;;;;;;23.07;44.97;102073.75;4191123;28;20074;-71
2022/10/24 01:10:06;;;;;;;21.10;2.80;;;;;;;23.09;44.75;102071.50;4190635;28;20032;-72
2022/10/24 01:12:26;;;;;;;2.72;1.40;;;;;;;23.13;44.81;102069.03;4187463;28;20139;-71
2022/10/24 01:15:00;;;;;;;1.80;1.50;;;;;;;23.12;44.85;102067.34;4185039;28;20139;-72
2022/10/24 01:17:39;;;;;;;4.38;2.10;;;;;;;23.11;44.87;102060.94;4184031;28;20107;-69
2022/10/24 01:20:15;;;;;;;5.10;1.55;;;;;;;23.09;44.95;102074.31;4182122;28;20029;-72
2022/10/24 01:22:53;;;;;;;4.47;1.65;;;;;;;23.11;44.87;102074.06;4184863;28;20045;-72
2022/10/24 01:25:07;;;;;;;5.53;1.90;;;;;;;23.11;44.73;102074.06;4192041;28;20052;-72
2022/10/24 01:27:39;;;;;;;5.28;1.70;;;;;;;23.08;44.57;102070.69;4196879;28;20045;-71
2022/10/24 01:30:10;;;;;;;5.90;1.85;;;;;;;22.88;44.58;102038.97;4198764;28;20102;-71
2022/10/24 01:32:28;;;;;;;3.72;1.60;;;;;;;23.08;44.53;102067.88;4197035;28;20032;-71
2022/10/24 01:34:42;;;;;;;3.20;1.50;;;;;;;23.09;44.67;102077.09;4185539;28;20443;-71
2022/10/24 01:36:54;;;;;;;2.88;1.75;;;;;;;22.92;44.83;102045.72;4187027;28;20045;-69
2022/10/24 01:39:04;;;;;;;5.30;1.48;;;;;;;23.08;44.73;102075.44;4192428;28;20078;-72
2022/10/24 01:41:11;;;;;;;2.20;1.60;;;;;;;23.09;44.98;102085.47;4196374;28;20024;-72
2022/10/24 01:43:16;;;;;;;2.83;1.75;;;;;;;23.08;44.62;102078.22;4197495;28;20109;-69
2022/10/24 01:45:28;;;;;;;2.13;1.25;;;;;;;23.02;44.67;102068.13;4199893;28;20090;-71
2022/10/24 01:47:36;;;;;;;2.75;1.85;;;;;;;23.09;44.59;102079.91;4199513;28;20049;-70
2022/10/24 01:49:40;;;;;;;4.15;1.30;;;;;;;23.09;44.67;102079.91;4194555;28;20029;-68
2022/10/24 01:51:42;;;;;;;5.22;1.45;;;;;;;23.09;44.77;102071.50;4195557;28;20416;-70
2022/10/24 01:53:48;;;;;;;2.05;1.58;;;;;;;23.08;44.77;102073.47;4194551;28;20052;-70
2022/10/24 01:55:49;;;;;;;3.10;1.60;;;;;;;23.06;44.47;102042.19;4197158;28;20094;-70
2022/10/24 01:57:50;;;;;;;3.00;1.85;;;;;;;23.07;44.67;102051.41;4189324;28;20052;-71
2022/10/24 01:59:52;;;;;;;3.55;1.50;;;;;;;23.07;44.83;102043.03;4194869;28;20044;-71
2022/10/24 02:02:20;;;;;;;4.57;1.60;;;;;;;23.03;44.70;102047.47;4199668;28;20028;-72
2022/10/24 02:04:22;;;;;;;2.50;1.60;;;;;;;23.10;44.28;102059.25;4187977;28;20041;-73
2022/10/24 02:06:38;;;;;;;3.38;1.55;;;;;;;22.82;44.39;102011.03;4200803;28;20044;-72
2022/10/24 02:08:47;;;;;;;4.57;1.80;;;;;;;23.04;44.48;102050.00;4209241;28;20075;-73
2022/10/24 02:11:01;;;;;;;3.65;1.88;;;;;;;22.93;44.56;102045.47;4190526;28;20040;-72
2022/10/24 02:13:09;;;;;;;6.57;1.60;;;;;;;23.00;44.29;102064.75;4189994;28;20041;-72
2022/10/24 02:15:19;;;;;;;4.60;1.60;;;;;;;23.12;44.52;102082.16;4189801;28;20094;-70
2022/10/24 02:17:20;;;;;;;5.25;1.88;;;;;;;23.09;44.24;102079.91;4186557;28;20032;-69
2022/10/24 02:19:22;;;;;;;4.45;1.50;;;;;;;23.13;44.28;102080.19;4186056;28;20079;-69
2022/10/24 02:21:42;;;;;;;2.55;1.65;;;;;;;23.13;44.29;102086.63;4193027;28;20476;-70
2022/10/24 02:23:56;;;;;;;2.80;1.40;;;;;;;23.12;44.17;102079.38;4193614;28;20040;-69
2022/10/24 02:26:07;;;;;;;2.80;1.50;;;;;;;23.13;44.41;102083.84;4189317;28;20130;-69
2022/10/24 02:28:17;;;;;;;2.38;1.42;;;;;;;23.10;44.16;102081.59;4192124;28;20094;-71
2022/10/24 02:30:23;;;;;;;3.10;1.98;;;;;;;23.14;44.19;102082.75;4191125;28;20075;-71
2022/10/24 02:32:45;;;;;;;3.30;1.30;;;;;;;23.14;44.47;102088.34;4200827;28;20475;-71
2022/10/24 02:34:48;;;;;;;3.63;1.75;;;;;;;23.19;44.06;102079.16;4197254;28;20029;-70
2022/10/24 02:36:52;;;;;;;1.90;1.33;;;;;;;23.19;44.25;102084.72;4199300;28;20425;-69
2022/10/24 02:38:56;;;;;;;5.38;1.60;;;;;;;23.19;44.05;102079.97;4199247;28;20098;-70
2022/10/24 02:41:03;;;;;;;3.72;1.85;;;;;;;23.20;44.42;102080.81;4199248;28;20459;-70
2022/10/24 02:43:06;;;;;;;1.75;1.40;;;;;;;23.16;43.85;102085.25;4191414;28;20033;-73
2022/10/24 02:45:09;;;;;;;4.30;1.55;;;;;;;23.21;43.94;102094.50;4184667;28;20091;-72
2022/10/24 02:47:12;;;;;;;4.80;1.70;;;;;;;23.13;43.99;102086.63;4182527;28;20071;-73
2022/10/24 02:49:16;;;;;;;2.58;1.50;;;;;;;23.21;43.94;102100.09;4187332;28;20071;-74
2022/10/24 02:51:21;;;;;;;2.95;1.52;;;;;;;23.20;43.94;102104.00;4199213;28;20110;-73
2022/10/24 02:53:24;;;;;;;3.10;2.25;;;;;;;23.18;44.24;102092.25;4209184;28;20683;-71
2022/10/24 02:55:26;;;;;;;2.38;1.63;;;;;;;23.18;44.15;102103.41;4215053;28;20040;-72
2022/10/24 02:57:27;;;;;;;6.00;1.95;;;;;;;23.17;44.42;102096.16;4215246;28;20459;-72
2022/10/24 02:59:29;;;;;;;2.08;1.20;;;;;;;23.15;44.48;102095.59;4193190;28;20098;-70
2022/10/24 03:01:30;;;;;;;16.48;2.17;;;;;;;23.17;44.24;102098.09;4181896;28;20041;-73
2022/10/24 03:03:31;;;;;;;4.50;1.80;;;;;;;23.15;44.62;102091.97;4181754;28;20036;-73
2022/10/24 03:05:33;;;;;;;4.85;1.83;;;;;;;23.14;44.70;102102.28;4194753;28;20498;-72
2022/10/24 03:07:34;;;;;;;4.57;1.55;;;;;;;23.13;44.63;102097.78;4197712;28;20055;-72
2022/10/24 03:09:38;;;;;;;3.67;1.77;;;;;;;23.14;44.51;102102.28;4196498;28;20102;-73
2022/10/24 03:11:40;;;;;;;5.35;1.63;;;;;;;23.16;44.40;102100.06;4197343;28;20114;-72
2022/10/24 03:13:44;;;;;;;3.08;1.52;;;;;;;23.00;44.41;102075.91;4212941;28;20113;-72
2022/10/24 03:15:45;;;;;;;3.05;1.60;;;;;;;23.18;44.52;102099.78;4205644;28;20479;-73
2022/10/24 03:17:49;;;;;;;3.28;1.88;;;;;;;23.19;44.42;102095.91;4197820;28;20083;-72
2022/10/24 03:19:50;;;;;;;6.45;1.95;;;;;;;23.19;44.55;102087.53;4197778;28;20040;-72
2022/10/24 03:21:51;;;;;;;3.65;1.73;;;;;;;23.11;44.27;102077.69;4198351;28;20146;-72
2022/10/24 03:23:53;;;;;;;8.65;2.38;;;;;;;23.00;44.10;102060.03;4198351;28;20093;-73
2022/10/24 03:26:00;;;;;;;3.28;1.60;;;;;;;23.09;44.19;102071.50;4196876;28;20048;-73
2022/10/24 03:28:01;;;;;;;2.20;1.60;;;;;;;23.16;44.32;102077.72;4197783;28;20048;-71
2022/10/24 03:30:03;;;;;;;6.10;1.55;;;;;;;23.20;44.54;102087.25;4195052;28;20105;-72
2022/10/24 03:32:05;;;;;;;4.32;1.75;;;;;;;23.20;44.28;102081.66;4197962;28;20045;-72
2022/10/24 03:34:06;;;;;;;4.03;1.42;;;;;;;23.19;44.38;102074.41;4198328;28;20078;-73
2022/10/24 03:36:08;;;;;;;2.30;1.70;;;;;;;23.17;44.40;102071.03;4197696;28;20041;-74
2022/10/24 03:38:09;;;;;;;3.63;1.80;;;;;;;23.21;44.25;102074.97;4197518;28;20059;-73
2022/10/24 03:40:11;;;;;;;4.18;1.73;;;;;;;22.89;44.20;102024.78;4197834;28;20037;-73
2022/10/24 03:42:12;;;;;;;6.07;2.00;;;;;;;23.23;44.26;102069.09;4197541;28;20549;-73
2022/10/24 03:44:14;;;;;;;3.42;1.50;;;;;;;23.19;44.17;102060.44;4197523;28;20537;-73
2022/10/24 03:46:15;;;;;;;3.20;1.73;;;;;;;23.22;44.04;102056.25;4195713;28;20041;-73
2022/10/24 03:48:16;;;;;;;2.70;1.70;;;;;;;23.22;44.18;102062.66;4196055;28;20024;-72
2022/10/24 03:50:18;;;;;;;2.35;1.55;;;;;;;23.00;44.27;102025.66;4196682;28;20040;-73
2022/10/24 03:52:24;;;;;;;3.83;2.03;;;;;;;23.21;44.16;102055.41;4172579;28;644680;-73
2022/10/24 03:54:26;;;;;;;3.42;1.35;;;;;;;23.08;44.10;102027.97;4197322;28;20052;-74
2022/10/24 03:56:36;;;;;;;3.78;1.70;;;;;;;23.21;44.21;102049.81;4198087;28;20369;-72
2022/10/24 03:58:38;;;;;;;2.70;1.80;;;;;;;23.22;44.16;102045.91;4198852;28;20040;-72
2022/10/24 04:00:40;;;;;;;2.75;1.63;;;;;;;23.12;44.12;102033.84;4198531;28;20040;-73
2022/10/24 04:02:41;;;;;;;3.90;1.88;;;;;;;23.10;44.15;102036.09;4198267;28;20045;-71
2022/10/24 04:04:42;;;;;;;4.88;1.77;;;;;;;23.21;45.17;102038.66;4197737;28;20036;-72
2022/10/24 04:06:44;;;;;;;4.55;1.45;;;;;;;23.17;45.30;102051.47;4198377;28;20559;-73
2022/10/24 04:08:45;;;;;;;2.90;2.00;;;;;;;23.15;45.64;102044.50;4198245;28;20089;-73
2022/10/24 04:10:51;;;;;;;5.78;1.85;;;;;;;23.12;45.25;102040.28;4195909;28;20036;-72
2022/10/24 04:12:52;;;;;;;3.25;1.30;;;;;;;23.10;45.38;102025.75;4196530;28;20044;-72
2022/10/24 04:14:56;;;;;;;4.00;1.55;;;;;;;22.89;45.50;101993.19;4199979;28;20033;-73
2022/10/24 04:16:58;;;;;;;3.00;1.60;;;;;;;23.09;44.97;102012.88;4214914;28;20027;-72
2022/10/24 04:18:59;;;;;;;2.90;1.50;;;;;;;22.92;45.29;101981.53;4198892;28;20029;-72
2022/10/24 04:21:00;;;;;;;3.40;1.45;;;;;;;23.11;45.06;101998.69;4197503;28;20094;-71
2022/10/24 04:23:02;;;;;;;2.17;1.40;;;;;;;23.09;45.34;101996.13;4198316;28;20040;-70
2022/10/24 04:25:06;;;;;;;4.80;1.70;;;;;;;23.07;45.40;101999.22;4197274;28;20184;-72
2022/10/24 04:27:08;;;;;;;3.35;1.38;;;;;;;23.08;45.07;102000.88;4197587;28;20086;-72
2022/10/24 04:29:09;;;;;;;1.70;1.42;;;;;;;23.08;45.21;101989.72;4196876;28;20032;-72
2022/10/24 04:31:10;;;;;;;6.95;1.60;;;;;;;23.08;45.37;101980.50;4196007;28;20044;-72
2022/10/24 04:33:17;;;;;;;4.63;1.55;;;;;;;23.08;45.30;101994.47;4208536;28;20101;-72
2022/10/24 04:35:21;;;;;;;3.08;1.58;;;;;;;23.04;45.48;101988.56;4214367;28;20106;-72
2022/10/24 04:37:23;;;;;;;2.38;1.50;;;;;;;22.52;45.33;101902.00;4201703;28;20040;-71
2022/10/24 04:39:26;;;;;;;3.05;1.77;;;;;;;23.02;45.25;102003.94;4197571;28;20033;-72
2022/10/24 04:41:28;;;;;;;4.65;1.70;;;;;;;23.04;45.35;101983.00;4197615;28;20036;-72
2022/10/24 04:43:29;;;;;;;11.80;1.58;;;;;;;23.03;45.55;101975.72;4197933;28;20075;-72
2022/10/24 04:45:30;;;;;;;3.00;1.73;;;;;;;23.02;45.07;101984.38;4197291;28;20032;-73
2022/10/24 04:47:32;;;;;;;4.13;2.30;;;;;;;22.88;45.18;101966.41;4197493;28;20151;-72
2022/10/24 04:49:33;;;;;;;2.33;1.67;;;;;;;23.04;45.37;101987.72;4204343;28;20036;-72
2022/10/24 04:51:35;;;;;;;1.60;1.23;;;;;;;23.04;45.22;101990.53;4214164;28;20101;-72
2022/10/24 04:53:36;;;;;;;3.58;2.25;;;;;;;23.04;45.32;101988.56;4214410;28;20044;-72
2022/10/24 04:55:38;;;;;;;4.28;1.98;;;;;;;23.04;45.24;101980.19;4214018;28;20421;-73
2022/10/24 04:57:48;;;;;;;3.22;1.75;;;;;;;22.92;45.53;101964.78;4207533;28;20429;-73
2022/10/24 04:59:49;;;;;;;3.65;1.52;;;;;;;23.04;45.39;101993.31;4214386;28;20036;-72
2022/10/24 05:01:50;;;;;;;3.20;1.42;;;;;;;23.01;45.77;101988.28;4214072;28;20101;-72
2022/10/24 05:03:57;;;;;;;3.88;1.90;;;;;;;22.92;45.39;101978.75;4211942;28;20085;-73
2022/10/24 05:05:59;;;;;;;4.47;1.95;;;;;;;23.04;45.40;101993.31;4195815;28;20445;-73
2022/10/24 05:08:00;;;;;;;2.80;1.60;;;;;;;22.90;45.48;101970.63;4190532;28;20052;-73
2022/10/24 05:10:07;;;;;;;3.90;1.90;;;;;;;22.93;45.65;101980.44;4196748;28;20101;-72
2022/10/24 05:12:08;;;;;;;4.07;1.52;;;;;;;23.05;45.60;102000.59;4205697;28;20093;-73
2022/10/24 05:14:10;;;;;;;2.28;1.73;;;;;;;23.05;45.53;101992.22;4199246;28;20032;-72
2022/10/24 05:16:13;;;;;;;3.85;1.83;;;;;;;23.07;45.81;101998.38;4196892;28;20434;-73
2022/10/24 05:18:15;;;;;;;3.72;1.55;;;;;;;23.06;45.58;102003.13;4196578;28;20430;-72
2022/10/24 05:20:16;;;;;;;2.80;1.70;;;;;;;23.06;45.65;102002.28;4197257;28;20539;-72
2022/10/24 05:22:23;;;;;;;3.00;1.95;;;;;;;23.04;45.99;102010.06;4196921;28;20044;-72
2022/10/24 05:24:24;;;;;;;2.30;1.42;;;;;;;23.02;46.19;102009.50;4188018;28;20090;-72
2022/10/24 05:26:26;;;;;;;3.03;1.90;;;;;;;23.03;46.05;102008.38;4196790;28;20032;-72
2022/10/24 05:28:28;;;;;;;2.97;1.80;;;;;;;22.98;45.64;102000.81;4196401;28;20086;-73
2022/10/24 05:30:29;;;;;;;1.67;1.45;;;;;;;23.02;46.05;102012.31;4195717;28;20106;-72
2022/10/24 05:32:31;;;;;;;3.08;1.85;;;;;;;22.96;46.01;102005.00;4196363;28;20144;-73
2022/10/24 05:34:37;;;;;;;3.50;1.92;;;;;;;22.98;46.18;102005.56;4205871;28;20044;-72
2022/10/24 05:36:38;;;;;;;2.67;1.73;;;;;;;22.99;46.52;102008.09;4213507;28;20085;-72
2022/10/24 05:38:40;;;;;;;3.67;2.05;;;;;;;22.97;46.03;102001.09;4214462;28;20032;-72
2022/10/24 05:40:41;;;;;;;3.10;1.70;;;;;;;22.95;46.39;101995.78;4205830;28;20044;-72
2022/10/24 05:42:45;;;;;;;4.32;1.90;;;;;;;22.97;46.26;101993.56;4196968;28;20036;-72
2022/10/24 05:44:46;;;;;;;3.60;1.75;;;;;;;22.96;46.10;101991.91;4196904;28;20048;-72
2022/10/24 05:46:48;;;;;;;2.17;1.58;;;;;;;22.96;46.13;101991.06;4197160;28;20036;-72
2022/10/24 05:48:49;;;;;;;2.97;1.80;;;;;;;22.97;46.41;101984.34;4197298;28;20044;-72
2022/10/24 05:50:55;;;;;;;2.58;1.70;;;;;;;22.90;46.18;101975.38;4195735;28;20427;-72
2022/10/24 05:52:56;;;;;;;2.42;1.50;;;;;;;22.97;46.28;101988.00;4196241;28;20045;-73
2022/10/24 05:54:57;;;;;;;2.53;1.60;;;;;;;22.96;46.05;101985.47;4196826;28;20487;-72
2022/10/24 05:57:01;;;;;;;2.20;1.65;;;;;;;22.96;46.18;101977.94;4197263;28;20441;-73
2022/10/24 05:59:03;;;;;;;2.08;1.63;;;;;;;22.89;46.24;101965.28;4197336;28;20074;-72
2022/10/24 06:01:07;;;;;;;3.22;1.55;;;;;;;22.88;46.08;101966.41;4197076;28;20357;-72
2022/10/24 06:03:10;;;;;;;1.70;1.50;;;;;;;22.92;46.24;101978.75;4197129;28;20048;-72
2022/10/24 06:05:12;;;;;;;2.85;1.77;;;;;;;22.95;46.11;101979.03;4196628;28;20338;-72
2022/10/24 06:07:14;;;;;;;3.95;1.73;;;;;;;22.94;46.26;101982.09;4200217;28;20098;-72
2022/10/24 06:09:15;;;;;;;2.50;1.75;;;;;;;22.94;45.97;101990.47;4197548;28;20041;-72
2022/10/24 06:11:17;;;;;;;2.45;1.50;;;;;;;22.94;46.26;101996.06;4199456;28;20130;-72
2022/10/24 06:13:23;;;;;;;3.20;2.10;;;;;;;22.82;46.31;101977.53;4199111;28;20036;-72
2022/10/24 06:15:25;;;;;;;2.42;1.77;;;;;;;22.81;46.34;101970.25;4199093;28;20048;-72
2022/10/24 06:17:26;;;;;;;1.60;1.48;;;;;;;22.89;46.16;101988.50;4207321;28;20040;-72
2022/10/24 06:19:27;;;;;;;2.42;1.60;;;;;;;22.92;45.99;101993.53;4200051;28;20074;-72
2022/10/24 06:21:29;;;;;;;4.40;1.95;;;;;;;22.92;46.20;101987.97;4199965;28;20109;-72
2022/10/24 06:23:31;;;;;;;2.72;1.98;;;;;;;22.81;46.17;101964.66;4199969;28;20105;-72
2022/10/24 06:25:35;;;;;;;1.77;1.60;;;;;;;22.90;46.22;101980.94;4199655;28;20552;-72
2022/10/24 06:27:39;;;;;;;2.77;2.00;;;;;;;22.90;45.88;101972.56;4200230;28;20118;-72
2022/10/24 06:29:40;;;;;;;2.00;1.80;;;;;;;22.89;46.18;101968.94;4199800;28;20315;-72
2022/10/24 06:31:44;;;;;;;3.22;1.60;;;;;;;22.79;46.54;101952.13;4200319;28;20098;-71
2022/10/24 06:33:49;;;;;;;2.85;1.33;;;;;;;22.90;46.25;101969.78;4199722;28;20040;-72
2022/10/24 06:35:50;;;;;;;2.20;1.63;;;;;;;22.87;46.32;101964.72;4199428;28;20075;-72
2022/10/24 06:37:54;;;;;;;3.35;2.13;;;;;;;22.89;45.99;101971.75;4199666;28;20091;-72
2022/10/24 06:39:55;;;;;;;2.30;1.70;;;;;;;22.88;46.28;101970.03;4199658;28;20476;-72
2022/10/24 06:42:02;;;;;;;2.05;1.63;;;;;;;22.88;46.12;101969.19;4199223;28;20048;-72
2022/10/24 06:44:04;;;;;;;2.58;1.70;;;;;;;22.89;46.33;101979.25;4199449;28;20040;-72
2022/10/24 06:46:06;;;;;;;2.13;1.65;;;;;;;22.89;46.52;101979.25;4196893;28;20483;-72
2022/10/24 06:48:11;;;;;;;1.60;1.42;;;;;;;22.89;46.44;101991.28;4199410;28;20440;-72
2022/10/24 06:50:12;;;;;;;2.83;1.70;;;;;;;22.89;46.21;101984.81;4198773;28;20102;-72
2022/10/24 06:52:19;;;;;;;1.83;1.63;;;;;;;22.89;46.36;102007.16;4199445;28;20032;-73
2022/10/24 06:54:20;;;;;;;2.50;1.60;;;;;;;22.80;46.38;101965.78;4197720;28;20040;-72
2022/10/24 06:56:24;;;;;;;2.60;1.60;;;;;;;22.88;46.31;101969.19;4198853;28;20045;-73
2022/10/24 06:58:30;;;;;;;4.10;1.60;;;;;;;22.76;46.59;101959.06;4187700;28;20078;-72
2022/10/24 07:00:36;;;;;;;2.55;1.52;;;;;;;22.77;46.18;101959.91;4199187;28;20269;-73
2022/10/24 07:02:43;;;;;;;1.83;1.52;;;;;;;22.84;46.39;101966.94;4198890;28;20576;-74
2022/10/24 07:04:47;;;;;;;2.38;1.50;;;;;;;22.84;46.80;101964.16;4199097;28;20036;-73
2022/10/24 07:06:51;;;;;;;3.43;1.80;;;;;;;22.84;46.54;101960.50;4196835;28;20434;-73
2022/10/24 07:08:58;;;;;;;2.10;1.70;;;;;;;22.84;46.44;101958.56;4197484;28;20075;-73
2022/10/24 07:10:59;;;;;;;3.83;1.90;;;;;;;22.77;46.48;101941.22;4200449;28;20527;-73
2022/10/24 07:13:01;;;;;;;2.00;1.58;;;;;;;22.84;46.54;101955.78;4211596;28;20040;-71
2022/10/24 07:15:03;;;;;;;2.58;1.70;;;;;;;22.84;46.72;101950.19;4197679;28;20468;-72
2022/10/24 07:17:07;;;;;;;2.45;1.67;;;;;;;22.74;46.70;101938.97;4195655;28;20052;-73
2022/10/24 07:19:10;;;;;;;2.65;1.50;;;;;;;22.86;46.69;101957.44;4191661;28;20052;-73
2022/10/24 07:21:18;;;;;;;2.75;1.70;;;;;;;22.83;46.44;101948.50;4198978;28;20102;-73
2022/10/24 07:23:22;;;;;;;2.10;1.90;;;;;;;22.84;46.28;101944.59;4198452;28;20052;-74
2022/10/24 07:25:23;;;;;;;3.17;1.80;;;;;;;22.81;46.11;101933.97;4196252;28;20082;-75
2022/10/24 07:27:27;;;;;;;2.38;1.52;;;;;;;22.84;46.12;101943.78;4196469;28;20327;-74
2022/10/24 07:29:29;;;;;;;2.95;1.90;;;;;;;22.83;46.21;101942.94;4195482;28;20040;-73
2022/10/24 07:31:32;;;;;;;3.67;1.70;;;;;;;22.83;46.43;101934.56;4194463;28;20048;-74
2022/10/24 07:33:38;;;;;;;2.65;1.65;;;;;;;22.79;46.47;101922.25;4198052;28;20040;-73
2022/10/24 07:35:42;;;;;;;2.47;1.60;;;;;;;22.81;46.12;101931.19;4197788;28;20157;-74
2022/10/24 07:37:44;;;;;;;1.67;1.57;;;;;;;22.82;46.11;101935.69;4197958;28;20476;-73
2022/10/24 07:39:45;;;;;;;2.45;1.63;;;;;;;22.65;45.97;101918.25;4199431;28;20094;-74
2022/10/24 07:41:46;;;;;;;2.15;1.67;;;;;;;22.84;46.27;101966.09;4197340;28;20040;-73
2022/10/24 07:43:48;;;;;;;2.08;1.80;;;;;;;22.84;46.32;101978.09;4198181;28;20040;-73
2022/10/24 07:45:49;;;;;;;2.17;1.70;;;;;;;22.85;46.18;101978.94;4198082;28;20082;-73
2022/10/24 07:47:50;;;;;;;2.13;1.50;;;;;;;22.83;46.32;101968.06;4196430;28;20040;-73
2022/10/24 07:49:52;;;;;;;2.97;1.80;;;;;;;22.84;46.30;101949.34;4197632;28;20037;-73
2022/10/24 07:51:53;;;;;;;1.77;1.50;;;;;;;22.78;46.29;101923.38;4198526;28;20082;-73
2022/10/24 07:53:56;;;;;;;2.35;1.80;;;;;;;22.75;46.40;101912.75;4197313;28;20048;-74
2022/10/24 07:55:59;;;;;;;1.90;1.52;;;;;;;22.82;45.91;101930.09;4197018;28;20048;-74
2022/10/24 07:58:00;;;;;;;2.17;1.50;;;;;;;22.82;46.07;101930.09;4196505;28;20032;-74
2022/10/24 08:00:04;;;;;;;2.20;1.73;;;;;;;22.82;46.23;101932.88;4197792;28;20555;-73
2022/10/24 08:02:05;;;;;;;2.45;1.63;;;;;;;22.82;46.27;101935.69;4197707;28;20036;-73
2022/10/24 08:04:08;;;;;;;2.22;1.73;;;;;;;22.81;46.35;101928.41;4197665;28;20032;-73
2022/10/24 08:06:18;;;;;;;2.13;1.67;;;;;;;22.82;45.77;101921.72;4197352;28;20086;-73
2022/10/24 08:08:19;;;;;;;2.38;1.60;;;;;;;22.72;46.68;101907.69;4195140;28;20040;-73
2022/10/24 08:10:21;;;;;;;1.70;1.50;;;;;;;22.79;46.25;101925.03;4197060;28;20040;-73
2022/10/24 08:12:31;;;;;;;3.78;1.45;;;;;;;22.79;46.39;101924.22;4197263;28;20077;-71
2022/10/24 08:14:32;;;;;;;3.63;1.60;;;;;;;22.80;46.42;101925.88;4197000;28;20110;-73
2022/10/24 08:16:33;;;;;;;2.55;1.75;;;;;;;22.59;45.97;101880.28;4196464;28;20048;-73
2022/10/24 08:18:35;;;;;;;1.73;1.27;;;;;;;22.77;46.23;101910.53;4196943;28;20153;-72
2022/10/24 08:20:36;;;;;;;2.70;1.80;;;;;;;22.71;46.08;101906.03;4197091;28;20529;-72
2022/10/24 08:22:38;;;;;;;1.75;1.42;;;;;;;22.61;46.15;101888.38;4196705;28;20102;-72
2022/10/24 08:24:41;;;;;;;1.90;1.50;;;;;;;22.70;46.03;101893.19;4196673;28;20048;-73
2022/10/24 08:26:42;;;;;;;2.88;1.50;;;;;;;22.56;46.37;101876.09;4196735;28;20102;-72
2022/10/24 08:28:47;;;;;;;1.95;1.30;;;;;;;22.77;46.33;101912.47;4196275;28;20040;-72
2022/10/24 08:30:55;;;;;;;;;;;;;;;22.75;46.05;101911.91;4196942;28;20543;-72
2022/10/24 08:32:56;;;;;;;1.85;1.73;;;;;;;22.82;45.80;101918.94;4197250;28;19985;-72
2022/10/24 08:34:58;;;;;;;2.22;1.63;;;;;;;22.59;46.27;101880.28;4195547;28;20118;-73
2022/10/24 08:37:02;;;;;;;3.30;1.70;;;;;;;22.79;46.17;101924.22;4197391;28;20048;-73
2022/10/24 08:39:04;;;;;;;2.25;1.63;;;;;;;22.76;46.29;101920.00;4197227;28;20105;-73
2022/10/24 08:41:05;;;;;;;2.63;1.80;;;;;;;22.76;45.88;101933.09;4197510;28;20037;-72
2022/10/24 08:43:12;;;;;;;1.73;1.60;;;;;;;22.74;46.16;101922.22;4197090;28;20048;-73
2022/10/24 08:45:25;;;;;;;2.05;1.50;;;;;;;22.52;45.79;101879.69;4196928;28;20032;-73
2022/10/24 08:47:52;;;;;;;2.45;1.55;;;;;;;22.65;46.16;101906.28;4197824;28;20036;-72
2022/10/24 08:50:35;;;;;;;2.25;1.50;;;;;;;22.71;46.00;101919.97;4181915;28;20411;-72
2022/10/24 08:52:42;;;;;;;2.70;1.73;;;;;;;22.65;45.89;101901.53;4180848;28;20044;-72
2022/10/24 08:54:45;;;;;;;1.80;1.60;;;;;;;22.72;46.05;101921.63;4180893;28;20041;-72
2022/10/24 08:56:53;;;;;;;1.95;1.40;;;;;;;22.72;45.96;101926.38;4197606;28;20053;-72
2022/10/24 08:58:56;;;;;;;1.45;1.20;;;;;;;22.72;45.89;101924.44;4196043;28;20114;-72
2022/10/24 09:01:01;;;;;;;2.45;1.33;;;;;;;22.72;46.18;101915.22;4196372;28;20102;-72
2022/10/24 09:03:36;;;;;;;1.65;1.55;;;;;;;22.72;46.03;101924.44;4197526;28;20044;-72
2022/10/24 09:05:47;;;;;;;3.00;1.25;;;;;;;22.73;45.91;101914.97;4194736;28;20044;-73
2022/10/24 09:07:54;;;;;;;3.35;1.88;;;;;;;22.74;46.00;101922.22;4197085;28;20430;-73
2022/10/24 09:10:25;;;;;;;2.50;1.73;;;;;;;22.71;46.18;101916.34;4196886;28;20033;-72
2022/10/24 09:12:26;;;;;;;1.77;1.52;;;;;;;22.74;45.93;101927.81;4196843;28;20422;-73
2022/10/24 09:14:33;;;;;;;2.15;1.67;;;;;;;22.62;46.19;101907.63;4197492;28;20110;-73
2022/10/24 09:16:34;;;;;;;3.83;1.63;;;;;;;22.72;45.73;101918.84;4196767;28;20492;-73
2022/10/24 09:18:45;;;;;;;1.27;1.17;;;;;;;22.47;45.83;101888.03;4197622;28;20086;-72
2022/10/24 09:20:48;;;;;;;2.50;1.60;;;;;;;22.53;45.91;101901.72;4196535;28;20044;-73
2022/10/24 09:22:50;;;;;;;1.85;1.40;;;;;;;22.72;45.87;101948.72;4196488;28;20041;-73
2022/10/24 09:25:13;;;;;;;2.10;1.42;;;;;;;22.69;46.31;101958.47;4196231;28;20418;-72
2022/10/24 09:27:19;;;;;;;1.92;1.30;;;;;;;22.67;46.17;101955.09;4196284;28;20041;-72
2022/10/24 09:29:21;;;;;;;1.92;1.48;;;;;;;22.71;45.88;101959.03;4196637;28;20628;-72
2022/10/24 09:31:25;;;;;;;2.05;1.63;;;;;;;22.71;46.05;101958.19;4196475;28;20040;-72
2022/10/24 09:33:34;;;;;;;3.28;1.77;;;;;;;22.69;46.09;101964.06;4195953;28;20037;-72
2022/10/24 09:35:37;;;;;;;1.58;1.30;;;;;;;22.69;45.96;101969.63;4196191;28;20101;-73
2022/10/24 09:37:44;;;;;;;4.65;1.40;;;;;;;22.69;45.85;101974.38;4196234;28;20037;-72
2022/10/24 09:40:03;;;;;;;1.98;1.55;;;;;;;22.69;45.91;101966.00;4196852;28;20040;-72
2022/10/24 09:42:04;;;;;;;2.55;1.45;;;;;;;22.67;46.02;101960.66;4194021;28;20063;-72